Time;durP1;ratioP1;P1;durP2;ratioP2;P2;SDS_P1;SDS_P2;PMS_P1;PMS_P2;Temp;Humidity;BMP_temperature;BMP_pressure;BME280_temperature;BME280_humidity;BME280_pressure;Samples;Min_cycle;Max_cycle;Signal;HPM_P1;HPM_P2
2021/07/31 00:01:33;;;;;;;10.93;2.60;;;;;;;16.02;100.00;100646.56;5232525;28;20029;-81
2021/07/31 00:04:05;;;;;;;11.45;2.47;;;;;;;16.08;100.00;100642.19;5232426;28;20480;-79
2021/07/31 00:06:36;;;;;;;8.27;2.35;;;;;;;16.07;100.00;100646.78;5221059;28;20086;-80
2021/07/31 00:09:06;;;;;;;11.95;2.63;;;;;;;16.00;100.00;100652.16;5229649;28;20063;-80
2021/07/31 00:11:37;;;;;;;12.48;3.10;;;;;;;16.00;100.00;100640.53;5233029;28;20025;-81
2021/07/31 00:14:07;;;;;;;10.95;2.58;;;;;;;16.00;100.00;100648.63;5231914;28;20106;-81
2021/07/31 00:16:38;;;;;;;18.65;2.65;;;;;;;15.88;100.00;100639.47;5231480;28;20017;-82
2021/07/31 00:19:08;;;;;;;10.25;2.67;;;;;;;15.80;100.00;100640.50;5218286;28;20021;-80
2021/07/31 00:21:39;;;;;;;19.50;2.92;;;;;;;15.68;100.00;100642.16;5231953;28;20029;-81
2021/07/31 00:24:09;;;;;;;16.92;2.70;;;;;;;15.70;100.00;100642.75;5233000;28;20032;-81
2021/07/31 00:26:40;;;;;;;10.45;3.40;;;;;;;15.67;100.00;100635.91;5232784;28;20400;-80
2021/07/31 00:29:10;;;;;;;15.82;3.47;;;;;;;15.63;100.00;100641.88;5232045;28;20491;-81
2021/07/31 00:31:41;;;;;;;7.85;2.67;;;;;;;15.59;100.00;100648.75;5232114;28;20025;-79
2021/07/31 00:34:11;;;;;;;9.80;2.45;;;;;;;15.60;100.00;100642.28;5233805;28;20040;-80
2021/07/31 00:36:42;;;;;;;14.82;2.83;;;;;;;15.63;100.00;100637.34;5233085;28;20294;-80
2021/07/31 00:39:12;;;;;;;14.45;3.20;;;;;;;15.69;100.00;100635.69;5227374;28;20430;-80
2021/07/31 00:41:43;;;;;;;17.23;2.67;;;;;;;15.73;100.00;100643.19;5227904;28;20040;-79
2021/07/31 00:44:13;;;;;;;13.07;3.42;;;;;;;15.70;100.00;100645.47;5227105;28;20024;-80
2021/07/31 00:46:44;;;;;;;9.25;2.67;;;;;;;15.60;100.00;100634.19;5226474;28;20104;-80
2021/07/31 00:49:14;;;;;;;13.10;3.38;;;;;;;15.65;100.00;100637.13;5226874;28;20040;-80
2021/07/31 00:51:45;;;;;;;13.77;3.50;;;;;;;15.71;100.00;100644.41;5226319;28;20032;-80
2021/07/31 00:54:16;;;;;;;15.73;4.28;;;;;;;15.79;100.00;100628.84;5225803;28;20036;-81
2021/07/31 00:56:47;;;;;;;9.00;3.15;;;;;;;15.83;100.00;100640.09;5225871;28;20021;-79
2021/07/31 00:59:19;;;;;;;10.70;3.20;;;;;;;15.78;100.00;100643.41;5225398;28;20040;-81
2021/07/31 01:01:49;;;;;;;9.13;2.90;;;;;;;15.79;100.00;100628.00;5230074;28;20029;-79
2021/07/31 01:04:20;;;;;;;12.05;2.90;;;;;;;15.75;100.00;100633.00;5230768;28;20025;-80
2021/07/31 01:06:51;;;;;;;11.52;3.15;;;;;;;15.76;100.00;100631.13;5217844;28;20043;-80
2021/07/31 01:09:21;;;;;;;17.30;3.88;;;;;;;15.71;100.00;100634.47;5218388;28;20025;-78
2021/07/31 01:11:52;;;;;;;10.90;3.08;;;;;;;15.76;100.00;100631.97;5213732;28;20041;-80
2021/07/31 01:14:22;;;;;;;12.65;3.35;;;;;;;15.61;100.00;100633.97;5231241;28;20025;-80
2021/07/31 01:16:54;;;;;;;9.07;3.00;;;;;;;15.61;100.00;100636.66;5231491;28;20017;-80
2021/07/31 01:19:25;;;;;;;13.30;3.33;;;;;;;15.51;100.00;100633.53;5231900;28;20049;-80
2021/07/31 01:21:55;;;;;;;15.00;3.22;;;;;;;15.56;100.00;100633.75;5230744;28;20108;-80
2021/07/31 01:24:26;;;;;;;17.33;3.45;;;;;;;15.52;100.00;100640.63;5231854;28;20480;-79
2021/07/31 01:26:56;;;;;;;15.57;3.42;;;;;;;15.41;100.00;100638.47;5230928;28;20482;-80
2021/07/31 01:29:27;;;;;;;11.20;3.63;;;;;;;15.43;100.00;100633.72;5231033;28;20035;-80
2021/07/31 01:31:57;;;;;;;10.80;3.15;;;;;;;15.41;100.00;100635.78;5230945;28;20028;-81
2021/07/31 01:34:28;;;;;;;9.95;2.97;;;;;;;15.42;100.00;100632.88;5230365;28;20021;-78
2021/07/31 01:36:59;;;;;;;11.50;3.72;;;;;;;15.41;100.00;100642.03;5231495;28;20021;-80
2021/07/31 01:39:30;;;;;;;13.32;3.58;;;;;;;15.40;100.00;100642.22;5213418;28;20059;-80
2021/07/31 01:42:01;;;;;;;11.15;3.58;;;;;;;15.51;100.00;100642.50;5230822;28;20447;-81
2021/07/31 01:44:31;;;;;;;22.85;3.45;;;;;;;15.50;100.00;100656.19;5230647;28;20068;-81
2021/07/31 01:47:02;;;;;;;12.93;3.10;;;;;;;15.52;100.00;100641.44;5231009;28;20086;-78
2021/07/31 01:49:33;;;;;;;14.27;3.17;;;;;;;15.51;100.00;100652.44;5231264;28;20028;-81
2021/07/31 01:52:04;;;;;;;12.38;3.50;;;;;;;15.52;100.00;100654.13;5231386;28;20070;-80
2021/07/31 01:54:34;;;;;;;11.90;2.88;;;;;;;15.49;100.00;100659.94;5231098;28;20149;-79
2021/07/31 01:57:05;;;;;;;9.13;3.05;;;;;;;15.43;100.00;100658.88;5197171;28;20021;-80
2021/07/31 01:59:35;;;;;;;7.97;2.95;;;;;;;15.44;100.00;100662.41;5230665;28;20080;-80
2021/07/31 02:02:06;;;;;;;10.35;2.92;;;;;;;15.42;100.00;100669.91;5231596;28;20025;-80
2021/07/31 02:04:36;;;;;;;8.30;3.13;;;;;;;15.45;100.00;100670.31;5230220;28;20108;-80
2021/07/31 02:07:09;;;;;;;9.50;3.08;;;;;;;15.46;100.00;100677.41;5217276;28;20032;-80
2021/07/31 02:09:39;;;;;;;12.15;4.07;;;;;;;15.40;100.00;100658.44;5230910;28;20471;-80
2021/07/31 02:12:10;;;;;;;15.85;3.33;;;;;;;15.41;100.00;100662.81;5230591;28;20321;-80
2021/07/31 02:14:41;;;;;;;11.00;2.80;;;;;;;15.38;100.00;100658.66;5231124;28;20028;-80
2021/07/31 02:17:11;;;;;;;9.50;2.90;;;;;;;15.42;100.00;100665.31;5230947;28;20384;-80
2021/07/31 02:19:41;;;;;;;12.88;3.45;;;;;;;15.44;100.00;100662.41;5231783;28;20029;-80
2021/07/31 02:22:12;;;;;;;11.23;3.13;;;;;;;15.39;100.00;100654.09;5229087;28;20021;-80
2021/07/31 02:24:42;;;;;;;14.77;3.28;;;;;;;15.29;100.00;100662.56;5212317;28;20048;-80
2021/07/31 02:27:13;;;;;;;10.23;2.80;;;;;;;15.39;100.00;100648.69;5213305;28;20056;-79
2021/07/31 02:29:43;;;;;;;6.95;2.63;;;;;;;15.42;100.00;100646.41;5230329;28;20060;-80
2021/07/31 02:32:14;;;;;;;12.88;3.50;;;;;;;15.42;100.00;100643.69;5231303;28;20025;-81
2021/07/31 02:34:44;;;;;;;8.88;2.55;;;;;;;15.44;100.00;100646.19;5230870;28;20029;-78
2021/07/31 02:37:15;;;;;;;8.88;3.15;;;;;;;15.40;100.00;100645.75;5230524;28;20051;-77
2021/07/31 02:39:46;;;;;;;11.82;3.05;;;;;;;15.34;100.00;100648.44;5230277;28;20025;-80
2021/07/31 02:42:16;;;;;;;11.70;3.20;;;;;;;15.22;100.00;100650.91;5230912;28;20113;-80
2021/07/31 02:44:47;;;;;;;12.80;2.63;;;;;;;15.14;100.00;100637.56;5231796;28;20116;-81
2021/07/31 02:47:17;;;;;;;12.02;3.47;;;;;;;15.04;100.00;100643.31;5232905;28;20029;-78
2021/07/31 02:49:48;;;;;;;12.88;3.10;;;;;;;14.96;100.00;100641.66;5233126;28;20025;-80
2021/07/31 02:52:18;;;;;;;11.23;3.58;;;;;;;14.89;100.00;100643.47;5232927;28;20029;-80
2021/07/31 02:54:50;;;;;;;9.60;2.92;;;;;;;14.86;100.00;100648.41;5229540;28;20021;-80
2021/07/31 02:57:20;;;;;;;9.68;3.15;;;;;;;14.82;100.00;100641.78;5231212;28;20070;-80
2021/07/31 02:59:50;;;;;;;12.68;3.75;;;;;;;14.71;100.00;100641.28;5232707;28;20107;-79
2021/07/31 03:02:21;;;;;;;10.85;3.00;;;;;;;14.76;100.00;100635.28;5232114;28;20498;-80
2021/07/31 03:04:52;;;;;;;11.85;2.85;;;;;;;14.80;100.00;100644.66;5229159;28;20089;-79
2021/07/31 03:07:22;;;;;;;10.07;3.28;;;;;;;14.82;100.00;100639.06;5215334;28;20025;-80
2021/07/31 03:09:53;;;;;;;10.15;3.17;;;;;;;14.93;100.00;100644.72;5228329;28;20033;-79
2021/07/31 03:12:23;;;;;;;12.30;3.38;;;;;;;14.98;100.00;100646.84;5227658;28;20032;-78
2021/07/31 03:14:56;;;;;;;9.57;3.13;;;;;;;15.05;100.00;100636.88;5228361;28;20082;-80
2021/07/31 03:17:26;;;;;;;12.88;3.00;;;;;;;15.05;100.00;100638.75;5228107;28;20091;-80
2021/07/31 03:19:57;;;;;;;6.78;3.13;;;;;;;15.00;100.00;100640.19;5228047;28;20035;-79
2021/07/31 03:22:27;;;;;;;10.82;2.95;;;;;;;15.07;100.00;100642.94;5228239;28;20060;-80
2021/07/31 03:24:58;;;;;;;9.77;2.58;;;;;;;15.06;100.00;100633.16;5227533;28;20029;-80
2021/07/31 03:27:28;;;;;;;10.55;3.00;;;;;;;14.97;100.00;100635.19;5227585;28;20399;-80
2021/07/31 03:29:58;;;;;;;16.23;3.20;;;;;;;14.95;100.00;100641.81;5227354;28;20055;-80
2021/07/31 03:32:29;;;;;;;7.68;3.08;;;;;;;14.85;100.00;100641.34;5227423;28;20039;-80
2021/07/31 03:35:00;;;;;;;5.80;3.30;;;;;;;14.78;100.00;100646.72;5227229;28;20437;-80
2021/07/31 03:37:31;;;;;;;9.77;3.08;;;;;;;14.72;100.00;100645.66;5227169;28;20027;-79
2021/07/31 03:40:02;;;;;;;9.10;3.72;;;;;;;14.67;100.00;100649.97;5227078;28;20029;-80
2021/07/31 03:42:32;;;;;;;19.73;5.55;;;;;;;14.62;100.00;100652.44;5227322;28;20021;-80
2021/07/31 03:45:03;;;;;;;10.88;3.65;;;;;;;14.57;100.00;100650.34;5227215;28;20057;-78
2021/07/31 03:47:34;;;;;;;12.80;3.13;;;;;;;14.57;100.00;100655.72;5227370;28;20016;-80
2021/07/31 03:50:05;;;;;;;10.45;3.33;;;;;;;14.59;100.00;100656.34;5226872;28;20058;-80
2021/07/31 03:52:35;;;;;;;10.15;3.13;;;;;;;14.50;100.00;100658.34;5227395;28;20434;-79
2021/07/31 03:55:07;;;;;;;15.43;3.85;;;;;;;14.53;100.00;100659.84;5209450;28;20028;-80
2021/07/31 03:57:37;;;;;;;19.63;4.72;;;;;;;14.53;100.00;100672.50;5223805;28;20435;-80
2021/07/31 04:00:08;;;;;;;7.75;3.17;;;;;;;14.58;100.00;100675.47;5217111;28;20025;-80
2021/07/31 04:02:39;;;;;;;9.30;3.22;;;;;;;14.58;100.00;100673.59;5226478;28;20027;-78
2021/07/31 04:05:09;;;;;;;12.45;3.58;;;;;;;14.53;100.00;100669.81;5226277;28;20104;-80
2021/07/31 04:07:40;;;;;;;10.35;3.40;;;;;;;14.50;100.00;100689.91;5226086;28;20061;-80
2021/07/31 04:10:10;;;;;;;12.52;4.00;;;;;;;14.50;100.00;100679.94;5226883;28;20108;-80
2021/07/31 04:12:41;;;;;;;8.60;3.25;;;;;;;14.48;100.00;100681.19;5192417;28;20079;-80
2021/07/31 04:15:12;;;;;;;9.80;4.35;;;;;;;14.42;100.00;100679.25;5226948;28;20031;-80
2021/07/31 04:17:43;;;;;;;11.25;3.55;;;;;;;14.41;100.00;100688.38;5227244;28;20442;-80
2021/07/31 04:20:13;;;;;;;13.00;3.97;;;;;;;14.37;100.00;100697.91;5226656;28;20036;-79
2021/07/31 04:22:43;;;;;;;14.68;4.22;;;;;;;14.39;100.00;100690.44;5226759;28;20025;-80
2021/07/31 04:25:14;;;;;;;16.30;4.10;;;;;;;14.34;100.00;100690.19;5226068;28;20044;-79
2021/07/31 04:27:44;;;;;;;14.93;4.60;;;;;;;14.34;100.00;100693.72;5226599;28;20120;-79
2021/07/31 04:30:15;;;;;;;11.05;4.32;;;;;;;14.28;100.00;100693.66;5226472;28;20103;-79
2021/07/31 04:32:45;;;;;;;12.90;3.97;;;;;;;14.34;100.00;100698.28;5226512;28;20021;-80
2021/07/31 04:35:16;;;;;;;18.52;4.53;;;;;;;14.29;100.00;100696.16;5226386;28;20157;-80
2021/07/31 04:37:46;;;;;;;9.63;3.78;;;;;;;14.23;100.00;100703.16;5226165;28;20479;-77
2021/07/31 04:40:17;;;;;;;15.20;4.28;;;;;;;14.33;100.00;100702.00;5213548;28;20091;-80
2021/07/31 04:42:48;;;;;;;16.20;5.43;;;;;;;14.40;100.00;100700.19;5226316;28;20029;-80
2021/07/31 04:45:18;;;;;;;8.90;3.60;;;;;;;14.48;100.00;100700.91;5226692;28;20021;-80
2021/07/31 04:47:49;;;;;;;13.88;4.20;;;;;;;14.49;100.00;100716.09;5226093;28;20040;-80
2021/07/31 04:50:19;;;;;;;12.15;4.50;;;;;;;14.48;100.00;100711.72;5225936;28;20021;-80
2021/07/31 04:52:50;;;;;;;12.60;4.45;;;;;;;14.54;100.00;100714.66;5208332;28;20025;-80
2021/07/31 04:55:20;;;;;;;13.10;4.78;;;;;;;14.65;100.00;100712.25;5208637;28;20104;-80
2021/07/31 04:57:50;;;;;;;10.07;4.70;;;;;;;14.70;100.00;100711.66;5226099;28;20035;-80
2021/07/31 05:00:21;;;;;;;10.98;5.25;;;;;;;14.75;100.00;100718.16;5226009;28;20025;-80
2021/07/31 05:02:51;;;;;;;14.75;4.32;;;;;;;14.87;100.00;100723.84;5225892;28;20029;-80
2021/07/31 05:05:22;;;;;;;15.00;4.50;;;;;;;14.93;100.00;100733.03;5207221;28;20028;-79
2021/07/31 05:07:52;;;;;;;8.98;4.03;;;;;;;14.93;100.00;100735.72;5213863;28;20029;-80
2021/07/31 05:10:23;;;;;;;8.18;3.78;;;;;;;15.01;100.00;100739.13;5225769;28;20020;-79
2021/07/31 05:12:53;;;;;;;12.13;3.83;;;;;;;15.01;100.00;100746.41;5225995;28;20028;-80
2021/07/31 05:15:23;;;;;;;16.55;5.47;;;;;;;15.11;100.00;100744.19;5225549;28;20013;-80
2021/07/31 05:17:54;;;;;;;13.10;4.25;;;;;;;15.12;100.00;100742.31;5225582;28;20048;-78
2021/07/31 05:20:24;;;;;;;21.83;5.55;;;;;;;15.14;100.00;100748.34;5225751;28;20111;-80
2021/07/31 05:22:55;;;;;;;8.10;4.03;;;;;;;15.23;100.00;100747.97;5226149;28;20028;-80
2021/07/31 05:25:26;;;;;;;13.65;3.90;;;;;;;15.23;100.00;100745.28;5225879;28;20623;-79
2021/07/31 05:27:56;;;;;;;9.68;3.58;;;;;;;15.29;100.00;100757.16;5225674;28;20196;-78
2021/07/31 05:30:27;;;;;;;10.15;3.55;;;;;;;15.34;100.00;100756.56;5225478;28;20055;-80
2021/07/31 05:32:57;;;;;;;10.75;3.80;;;;;;;15.43;100.00;100755.38;5208435;28;20024;-79
2021/07/31 05:35:28;;;;;;;9.93;4.18;;;;;;;15.42;100.00;100761.81;5225790;28;20498;-79
2021/07/31 05:37:58;;;;;;;13.15;4.00;;;;;;;15.41;100.00;100758.28;5225598;28;20454;-79
2021/07/31 05:40:29;;;;;;;11.55;4.72;;;;;;;15.47;100.00;100762.06;5225092;28;20068;-80
2021/07/31 05:42:59;;;;;;;15.40;3.90;;;;;;;15.44;100.00;100757.03;5225662;28;20036;-80
2021/07/31 05:45:30;;;;;;;9.75;3.95;;;;;;;15.50;100.00;100764.34;5225881;28;20307;-79
2021/07/31 05:48:00;;;;;;;13.85;4.22;;;;;;;15.53;100.00;100758.53;5225625;28;20020;-80
2021/07/31 05:50:31;;;;;;;15.18;4.03;;;;;;;15.60;100.00;100767.50;5225621;28;20029;-79
2021/07/31 05:53:01;;;;;;;9.02;4.28;;;;;;;15.61;100.00;100771.03;5224903;28;20170;-80
2021/07/31 05:55:32;;;;;;;10.20;4.90;;;;;;;15.67;100.00;100760.31;5225342;28;20048;-80
2021/07/31 05:58:02;;;;;;;14.30;5.00;;;;;;;15.87;100.00;100771.19;5228185;28;20115;-83
2021/07/31 06:00:33;;;;;;;10.40;3.63;;;;;;;15.98;100.00;100767.91;5210870;28;20032;-80
2021/07/31 06:03:03;;;;;;;9.50;4.00;;;;;;;16.03;100.00;100767.28;5228815;28;20526;-81
2021/07/31 06:05:34;;;;;;;12.68;4.45;;;;;;;16.00;100.00;100771.22;5224219;28;20033;-80
2021/07/31 06:08:04;;;;;;;14.30;4.95;;;;;;;15.87;100.00;100773.91;5220377;28;20550;-82
2021/07/31 06:10:35;;;;;;;21.58;5.57;;;;;;;15.87;100.00;100773.91;5231055;28;20024;-82
2021/07/31 06:13:05;;;;;;;13.05;4.40;;;;;;;15.89;100.00;100785.34;5230683;28;20047;-80
2021/07/31 06:15:41;;;;;;;18.75;4.95;;;;;;;15.96;100.00;100774.53;5231085;28;20067;-80
2021/07/31 06:18:11;;;;;;;11.15;4.15;;;;;;;16.29;100.00;100780.03;5230986;28;20021;-79
2021/07/31 06:20:41;;;;;;;15.45;4.50;;;;;;;16.41;100.00;100781.09;5231065;28;20048;-81
2021/07/31 06:23:12;;;;;;;9.18;3.72;;;;;;;16.32;100.00;100782.34;5231188;28;20436;-81
2021/07/31 06:25:42;;;;;;;11.63;3.97;;;;;;;16.34;100.00;100782.13;5230913;28;20475;-81
2021/07/31 06:28:13;;;;;;;14.52;4.45;;;;;;;16.46;100.00;100780.47;5230510;28;20021;-82
2021/07/31 06:30:44;;;;;;;12.00;3.70;;;;;;;16.99;100.00;100784.06;5234626;28;20029;-80
2021/07/31 06:33:14;;;;;;;10.57;3.88;;;;;;;17.29;100.00;100789.03;5234620;28;20461;-80
2021/07/31 06:35:45;;;;;;;13.13;4.00;;;;;;;17.26;100.00;100776.72;5233793;28;20094;-78
2021/07/31 06:38:15;;;;;;;11.93;3.85;;;;;;;17.21;100.00;100781.94;5234503;28;20044;-81
2021/07/31 06:40:46;;;;;;;18.55;4.07;;;;;;;17.59;100.00;100792.09;5233815;28;20047;-79
2021/07/31 06:43:16;;;;;;;8.95;3.47;;;;;;;17.79;100.00;100783.91;5234769;28;20032;-82
2021/07/31 06:45:46;;;;;;;10.98;3.30;;;;;;;17.98;100.00;100787.59;5234877;28;20028;-81
2021/07/31 06:48:17;;;;;;;8.88;3.42;;;;;;;18.15;100.00;100791.44;5216395;28;20080;-82
2021/07/31 06:50:47;;;;;;;11.70;3.67;;;;;;;18.17;100.00;100789.34;5217263;28;20052;-83
2021/07/31 06:53:18;;;;;;;10.38;3.85;;;;;;;18.11;100.00;100795.66;5234437;28;20020;-80
2021/07/31 06:55:48;;;;;;;10.88;3.55;;;;;;;18.13;100.00;100796.28;5232990;28;20099;-83
2021/07/31 06:58:19;;;;;;;11.52;3.28;;;;;;;18.11;100.00;100793.75;5216111;28;20032;-80
2021/07/31 07:00:49;;;;;;;12.32;3.60;;;;;;;18.07;100.00;100795.28;5233785;28;20108;-81
2021/07/31 07:03:20;;;;;;;10.27;3.55;;;;;;;17.84;100.00;100795.78;5241399;28;20020;-80
2021/07/31 07:05:50;;;;;;;11.88;3.70;;;;;;;17.76;100.00;100798.72;5229092;28;20502;-79
2021/07/31 07:08:22;;;;;;;7.75;3.22;;;;;;;17.69;100.00;100797.91;5228113;28;20033;-79
2021/07/31 07:10:52;;;;;;;7.82;3.25;;;;;;;17.68;100.00;100798.13;5227656;28;20395;-80
2021/07/31 07:13:23;;;;;;;10.30;3.15;;;;;;;17.78;100.00;100804.78;5227840;28;20029;-81
2021/07/31 07:15:53;;;;;;;9.18;3.10;;;;;;;17.76;100.00;100803.31;5227651;28;20013;-80
2021/07/31 07:18:24;;;;;;;14.13;3.97;;;;;;;17.78;100.00;100812.94;5227541;28;20028;-79
2021/07/31 07:20:54;;;;;;;9.73;3.28;;;;;;;17.79;100.00;100809.16;5232668;28;20076;-78
2021/07/31 07:23:25;;;;;;;8.80;3.80;;;;;;;17.61;100.00;100820.66;5249637;28;20013;-78
2021/07/31 07:25:55;;;;;;;6.97;3.20;;;;;;;17.85;100.00;100821.03;5238708;28;20022;-79
2021/07/31 07:28:26;;;;;;;8.73;3.38;;;;;;;17.96;100.00;100822.25;5231375;28;20029;-79
2021/07/31 07:30:56;;;;;;;10.23;3.53;;;;;;;18.15;100.00;100815.06;5232287;28;20085;-81
2021/07/31 07:33:27;;;;;;;12.85;4.10;;;;;;;18.07;100.00;100821.56;5230925;28;20078;-78
2021/07/31 07:35:57;;;;;;;9.02;3.20;;;;;;;18.17;100.00;100824.63;5232953;28;20112;-79
2021/07/31 07:38:28;;;;;;;5.63;3.00;;;;;;;18.16;100.00;100827.56;5232872;28;20025;-81
2021/07/31 07:40:58;;;;;;;6.22;3.20;;;;;;;18.26;100.00;100833.38;5233293;28;20029;-78
2021/07/31 07:43:29;;;;;;;9.60;2.75;;;;;;;18.57;100.00;100830.66;5232102;28;20059;-77
2021/07/31 07:45:59;;;;;;;15.40;2.90;;;;;;;18.94;100.00;100835.47;5231300;28;20065;-79
2021/07/31 07:48:34;;;;;;;6.63;2.30;;;;;;;18.88;100.00;100829.88;5232218;28;20025;-81
2021/07/31 07:51:05;;;;;;;5.50;2.50;;;;;;;18.94;100.00;100844.47;5225431;28;20396;-79
2021/07/31 07:53:36;;;;;;;6.82;2.00;;;;;;;18.81;100.00;100830.97;5228943;28;20041;-80
2021/07/31 07:56:07;;;;;;;2.78;1.83;;;;;;;19.30;100.00;100843.72;5229792;28;20032;-79
2021/07/31 07:58:37;;;;;;;3.08;1.65;;;;;;;19.68;100.00;100834.59;5231310;28;20059;-77
2021/07/31 08:01:10;;;;;;;7.68;2.40;;;;;;;19.66;100.00;100837.50;5229306;28;20029;-78
2021/07/31 08:03:40;;;;;;;6.25;2.20;;;;;;;19.25;100.00;100840.00;5243509;28;20505;-81
2021/07/31 08:06:17;;;;;;;7.80;2.20;;;;;;;18.83;100.00;100848.72;5232780;28;20021;-80
2021/07/31 08:08:48;;;;;;;4.43;1.90;;;;;;;19.02;100.00;100848.78;5230865;28;20048;-81
2021/07/31 08:11:18;;;;;;;7.57;2.10;;;;;;;19.17;100.00;100851.97;5231051;28;20029;-79
2021/07/31 08:13:49;;;;;;;12.43;3.45;;;;;;;18.94;100.00;100847.19;5228742;28;20036;-82
2021/07/31 08:16:20;;;;;;;7.30;2.30;;;;;;;18.91;100.00;100846.78;5231017;28;20017;-78
2021/07/31 08:18:50;;;;;;;5.72;2.40;;;;;;;18.99;100.00;100841.91;5230086;28;20036;-81
2021/07/31 08:21:20;;;;;;;6.03;1.98;;;;;;;18.65;100.00;100840.44;5230370;28;20028;-78
2021/07/31 08:23:51;;;;;;;9.65;3.00;;;;;;;18.41;100.00;100850.22;5229394;28;20032;-81
2021/07/31 08:26:22;;;;;;;5.95;2.50;;;;;;;18.05;100.00;100839.94;5231168;28;20050;-81
2021/07/31 08:28:52;;;;;;;10.93;3.42;;;;;;;18.08;100.00;100840.38;5230337;28;20139;-79
2021/07/31 08:31:23;;;;;;;3.80;2.38;;;;;;;18.36;100.00;100842.72;5229571;28;20029;-80
2021/07/31 08:33:54;;;;;;;6.78;2.78;;;;;;;18.80;100.00;100856.47;5229516;28;20033;-78
2021/07/31 08:36:24;;;;;;;5.72;2.45;;;;;;;19.22;100.00;100846.72;5229908;28;20021;-78
2021/07/31 08:38:56;;;;;;;5.35;2.30;;;;;;;19.37;100.00;100855.34;5230733;28;20025;-79
2021/07/31 08:41:27;;;;;;;5.40;2.60;;;;;;;19.22;100.00;100860.31;5212852;28;20036;-83
2021/07/31 08:43:58;;;;;;;5.07;2.42;;;;;;;19.42;100.00;100858.22;5229203;28;20684;-80
2021/07/31 08:46:29;;;;;;;2.83;1.90;;;;;;;19.22;100.00;100862.19;5226517;28;20021;-81
2021/07/31 08:49:00;;;;;;;6.72;2.20;;;;;;;19.53;100.00;100861.28;5227052;28;20029;-78
2021/07/31 08:51:32;;;;;;;3.15;2.20;;;;;;;19.86;100.00;100859.06;5199979;28;20021;-79
2021/07/31 08:54:02;;;;;;;5.63;2.20;;;;;;;20.18;100.00;100856.16;5210869;28;20032;-79
2021/07/31 08:56:33;;;;;;;3.90;1.85;;;;;;;20.62;100.00;100849.50;5220047;28;20010;-79
2021/07/31 08:59:04;;;;;;;5.40;1.92;;;;;;;21.07;100.00;100857.19;5220941;28;20025;-79
2021/07/31 09:01:35;;;;;;;3.13;1.55;;;;;;;20.92;100.00;100867.69;5227248;28;20438;-79
2021/07/31 09:04:15;;;;;;;5.25;2.20;;;;;;;20.55;100.00;100856.13;5238169;28;20060;-80
2021/07/31 09:06:46;;;;;;;9.90;2.47;;;;;;;19.60;100.00;100876.50;5212329;28;20033;-78
2021/07/31 09:09:24;;;;;;;11.10;3.28;;;;;;;18.95;100.00;100867.84;5223909;28;20029;-79
2021/07/31 09:11:54;;;;;;;6.75;3.22;;;;;;;18.74;100.00;100873.66;5224355;28;20025;-81
2021/07/31 09:14:26;;;;;;;8.52;3.65;;;;;;;18.93;100.00;100869.16;5224812;28;20100;-79
2021/07/31 09:16:57;;;;;;;7.30;3.28;;;;;;;18.89;100.00;100875.00;5224368;28;20044;-78
2021/07/31 09:19:29;;;;;;;5.65;2.97;;;;;;;19.20;100.00;100877.91;5224426;28;20025;-77
2021/07/31 09:22:07;;;;;;;9.25;3.03;;;;;;;19.47;100.00;100884.75;5224398;28;20427;-77
2021/07/31 09:24:37;;;;;;;6.70;3.20;;;;;;;19.73;100.00;100885.59;5224505;28;20036;-77
2021/07/31 09:27:24;;;;;;;4.93;2.53;;;;;;;19.95;100.00;100886.00;5224430;28;20039;-77
2021/07/31 09:30:03;;;;;;;8.38;2.65;;;;;;;19.79;100.00;100890.97;5224111;28;20123;-79
2021/07/31 09:32:37;;;;;;;5.45;2.80;;;;;;;20.18;100.00;100884.25;5224342;28;20078;-78
2021/07/31 09:35:20;;;;;;;5.55;2.40;;;;;;;20.34;100.00;100887.41;5224659;28;20400;-79
2021/07/31 09:37:54;;;;;;;4.90;2.47;;;;;;;20.49;100.00;100887.84;5205877;28;20104;-78
2021/07/31 09:40:28;;;;;;;3.37;1.87;;;;;;;20.00;100.00;100902.47;5225982;28;20471;-79
2021/07/31 09:43:14;;;;;;;3.97;2.57;;;;;;;19.91;100.00;100897.31;5224319;28;20073;-79
2021/07/31 09:45:45;;;;;;;4.47;1.98;;;;;;;19.88;100.00;100889.63;5224669;28;20033;-79
2021/07/31 09:48:15;;;;;;;4.70;2.28;;;;;;;19.94;100.00;100881.63;5224129;28;20025;-80
2021/07/31 09:50:47;;;;;;;10.30;2.22;;;;;;;20.09;100.00;100888.34;5223974;28;20025;-79
2021/07/31 09:53:21;;;;;;;5.38;2.22;;;;;;;20.31;100.00;100885.13;5216353;28;20021;-78
2021/07/31 09:55:56;;;;;;;6.78;1.73;;;;;;;20.39;100.00;100885.66;5220458;28;20025;-79
2021/07/31 09:58:31;;;;;;;4.38;1.95;;;;;;;20.70;100.00;100872.88;5215288;28;20028;-79
2021/07/31 10:01:03;;;;;;;3.90;1.65;;;;;;;20.83;100.00;100886.28;5224022;28;20033;-78
2021/07/31 10:03:35;;;;;;;3.15;1.50;;;;;;;20.93;100.00;100883.84;5224276;28;20025;-79
2021/07/31 10:06:07;;;;;;;4.97;2.15;;;;;;;20.91;100.00;100888.69;5225408;28;20021;-80
2021/07/31 10:08:38;;;;;;;6.40;1.90;;;;;;;20.88;100.00;100889.19;5227382;28;20059;-79
2021/07/31 10:11:08;;;;;;;3.40;2.05;;;;;;;20.77;100.00;100895.41;5225666;28;20027;-78
2021/07/31 10:13:40;;;;;;;13.38;1.92;;;;;;;20.88;100.00;100899.22;5227511;28;20029;-79
2021/07/31 10:16:10;;;;;;;6.88;1.92;;;;;;;20.72;100.00;100898.00;5209340;28;20469;-79
2021/07/31 10:18:54;;;;;;;5.85;2.08;;;;;;;20.49;100.00;100892.47;5227768;28;20070;-80
2021/07/31 10:21:26;;;;;;;3.17;1.50;;;;;;;20.46;100.00;100903.78;5225556;28;20079;-79
2021/07/31 10:23:59;;;;;;;4.50;1.80;;;;;;;20.36;100.00;100907.88;5226029;28;20024;-80
2021/07/31 10:26:31;;;;;;;3.40;1.63;;;;;;;19.96;100.00;100898.53;5225904;28;20032;-80
2021/07/31 10:29:26;;;;;;;3.10;1.50;;;;;;;19.91;100.00;100913.66;5226201;28;20025;-81
2021/07/31 10:32:21;;;;;;;5.88;2.00;;;;;;;19.72;100.00;100913.88;5223809;28;20146;-78
2021/07/31 10:34:53;;;;;;;3.97;2.10;;;;;;;19.56;100.00;100909.81;5224789;28;20043;-79
2021/07/31 10:37:34;;;;;;;6.03;2.22;;;;;;;20.04;100.00;100903.69;5225685;28;20112;-80
2021/07/31 10:40:07;;;;;;;4.05;1.60;;;;;;;20.36;100.00;100910.63;5225014;28;20027;-80
2021/07/31 10:42:47;;;;;;;3.00;1.38;;;;;;;20.41;100.00;100905.31;5224451;28;20025;-81
2021/07/31 10:45:18;;;;;;;3.00;1.30;;;;;;;20.47;100.00;100910.94;5224698;28;20032;-80
2021/07/31 10:47:50;;;;;;;2.88;1.38;;;;;;;20.35;100.00;100903.50;5224880;28;20406;-80
2021/07/31 10:50:22;;;;;;;4.38;1.73;;;;;;;20.46;100.00;100914.69;5225688;28;20067;-79
2021/07/31 10:52:57;;;;;;;1.60;1.27;;;;;;;20.44;100.00;100909.47;5224448;28;20244;-79
2021/07/31 10:55:42;;;;;;;4.75;1.55;;;;;;;20.23;100.00;100920.84;5224410;28;20371;-79
2021/07/31 10:58:14;;;;;;;;;;;;;;;19.97;100.00;100903.75;5224071;28;20032;-80
2021/07/31 11:00:47;;;;;;;3.28;1.52;;;;;;;19.91;100.00;100904.66;5222760;28;20322;-81
2021/07/31 11:03:24;;;;;;;3.67;1.90;;;;;;;20.12;100.00;100919.72;5214728;28;20043;-81
2021/07/31 11:05:55;;;;;;;2.38;1.20;;;;;;;20.10;100.00;100913.66;5218826;28;20211;-82
2021/07/31 11:08:27;;;;;;;8.98;2.03;;;;;;;20.26;100.00;100918.50;5217375;28;20025;-80
2021/07/31 11:10:59;;;;;;;3.55;1.38;;;;;;;20.40;100.00;100916.44;5223621;28;20040;-80
2021/07/31 11:13:51;;;;;;;4.40;1.40;;;;;;;20.59;100.00;100930.91;5223544;28;20502;-80
2021/07/31 11:16:23;;;;;;;4.38;1.60;;;;;;;20.89;100.00;100922.72;5226345;28;20020;-82
2021/07/31 11:18:55;;;;;;;3.85;1.90;;;;;;;20.92;100.00;100916.78;5228192;28;20119;-81
2021/07/31 11:21:28;;;;;;;3.72;1.88;;;;;;;21.19;100.00;100920.78;5209510;28;20028;-81
2021/07/31 11:24:05;;;;;;;4.55;2.22;;;;;;;21.60;100.00;100913.59;5208982;28;20338;-81
2021/07/31 11:26:54;;;;;;;2.45;1.55;;;;;;;21.95;100.00;100920.94;5226451;28;20025;-81
2021/07/31 11:29:27;;;;;;;1.83;1.30;;;;;;;22.05;100.00;100923.06;5210929;28;20556;-81
2021/07/31 11:32:02;;;;;;;2.10;1.60;;;;;;;22.35;100.00;100925.66;5227367;28;20369;-81
2021/07/31 11:34:41;;;;;;;1.58;1.40;;;;;;;22.97;100.00;100923.03;5239143;28;20021;-82